Aviation Digital Data Service (ADDS)

Output produced by METARs form (1712 UTC 13 February 2016)
found at http://aviationweather.gov/adds/metars/
 
KBPT 131653Z 10016KT 10SM CLR 17/04 A3039 RMK AO2 SLP291 T01720039